Time;durP1;ratioP1;P1;durP2;ratioP2;P2;SDS_P1;SDS_P2;PMS_P1;PMS_P2;Temp;Humidity;BMP_temperature;BMP_pressure;BME280_temperature;BME280_humidity;BME280_pressure;Samples;Min_cycle;Max_cycle;Signal;HPM_P1;HPM_P2
2022/08/11 08:18:23;;;;;;;;;15.50;11.75;;;;;26.57;30.53;101402.75;4957080;28;45422;-68
2022/08/11 08:20:49;;;;;;;;;18.00;12.00;;;;;26.60;30.30;101407.00;4957093;28;45296;-65
2022/08/11 08:23:16;;;;;;;;;17.75;11.25;;;;;26.61;30.33;101404.22;4957000;28;45362;-62
2022/08/11 08:25:44;;;;;;;;;14.50;11.00;;;;;26.64;30.28;101400.50;4956912;28;45345;-66
2022/08/11 08:28:14;;;;;;;;;12.75;10.50;;;;;26.66;30.48;101403.91;4956950;28;45491;-66
2022/08/11 08:30:47;;;;;;;;;14.50;12.50;;;;;26.67;30.45;101405.59;4957430;28;45247;-66
2022/08/11 08:33:16;;;;;;;;;11.50;10.25;;;;;26.69;29.97;101409.81;4956889;28;46646;-65
2022/08/11 08:35:43;;;;;;;;;17.25;12.75;;;;;26.70;30.03;101402.72;4956858;28;45377;-65
2022/08/11 08:38:08;;;;;;;;;13.50;12.00;;;;;26.70;30.44;101405.38;4956999;28;45422;-58
2022/08/11 08:40:34;;;;;;;;;15.25;11.00;;;;;26.71;30.35;101401.75;4957282;28;45389;-59
2022/08/11 08:43:08;;;;;;;;;15.50;11.00;;;;;26.72;29.91;101403.47;4956923;28;45922;-65
2022/08/11 08:45:35;;;;;;;;;14.00;10.00;;;;;26.73;29.94;101405.16;4956992;28;45986;-48
2022/08/11 08:48:05;;;;;;;;;12.50;8.50;;;;;26.73;30.04;101402.50;4957124;28;45472;-60
2022/08/11 08:53:28;;;;;;;;;11.75;11.00;;;;;26.74;30.10;101404.16;4956903;28;45306;-65
2022/08/11 08:55:55;;;;;;;;;12.00;9.00;;;;;26.75;29.80;101399.72;4956926;28;45813;-65
2022/08/11 08:58:22;;;;;;;;;10.25;9.00;;;;;26.75;29.77;101405.88;4956685;28;45447;-64
2022/08/11 09:00:53;;;;;;;;;12.00;10.00;;;;;26.76;29.88;101409.41;4957149;28;45564;-62
2022/08/11 09:03:19;;;;;;;;;8.75;8.00;;;;;26.77;29.82;101406.63;4955762;28;45524;-59
2022/08/11 09:05:46;;;;;;;;;12.00;9.00;;;;;26.78;30.00;101413.66;4956753;28;45478;-64
2022/08/11 09:08:13;;;;;;;;;11.75;9.50;;;;;26.79;29.93;101407.38;4956597;28;45431;-64
2022/08/11 09:10:39;;;;;;;;;9.75;9.50;;;;;26.80;29.80;101411.75;4956972;28;45516;-60
2022/08/11 09:13:07;;;;;;;;;10.00;8.50;;;;;26.81;29.92;101408.13;4956354;28;45345;-60
2022/08/11 09:15:33;;;;;;;;;13.25;11.50;;;;;26.83;30.24;101406.22;4956943;28;45370;-63
2022/08/11 09:18:05;;;;;;;;;9.00;9.00;;;;;26.84;30.10;101399.06;4955416;28;45496;-61
2022/08/11 09:20:37;;;;;;;;;12.75;8.00;;;;;26.85;29.92;101398.94;4959623;28;45401;-60
2022/08/11 09:28:41;;;;;;;;;9.75;8.50;;;;;26.92;30.07;101398.50;4960073;28;45361;-58
2022/08/11 09:31:07;;;;;;;;;10.75;9.75;;;;;26.93;30.25;101389.56;4959715;28;45430;-57
2022/08/11 09:33:35;;;;;;;;;9.50;8.00;;;;;26.92;30.17;101394.03;4959321;28;46294;-60
2022/08/11 09:40:27;;;;;;;;;8.50;8.50;;;;;26.93;29.90;101392.22;4959881;28;45233;-56
2022/08/11 09:41:32;;;;;;;;;9.00;9.00;;;;;26.95;30.32;101385.00;4960317;28;45349;-60
2022/08/11 09:46:44;;;;;;;;;9.25;9.25;;;;;26.97;30.30;101386.56;4959782;28;45365;-61
2022/08/11 09:49:09;;;;;;;;;7.75;7.75;;;;;26.98;30.61;101385.59;4959655;28;45320;-59
2022/08/11 09:51:35;;;;;;;;;9.25;8.00;;;;;26.99;30.18;101381.13;4959762;28;45379;-56
2022/08/11 09:54:05;;;;;;;;;9.75;9.50;;;;;26.99;30.22;101375.81;4959392;28;46248;-55
2022/08/11 09:59:20;;;;;;;;;8.00;8.00;;;;;27.02;30.15;101367.59;4959218;28;45490;-59
2022/08/11 10:01:49;;;;;;;;;9.00;8.00;;;;;27.01;29.80;101371.22;4959604;28;45490;-56
2022/08/11 10:04:19;;;;;;;;;8.75;8.00;;;;;27.02;30.12;101378.25;4958996;28;45516;-57
2022/08/11 10:07:01;;;;;;;;;8.50;8.25;;;;;27.03;29.86;101379.94;4959217;28;45857;-60
2022/08/11 10:09:33;;;;;;;;;9.75;9.75;;;;;27.03;29.85;101371.97;4959473;28;45288;-59
2022/08/11 10:12:01;;;;;;;;;8.00;8.00;;;;;27.04;29.54;101371.00;4959018;28;45541;-60
2022/08/11 10:17:15;;;;;;;;;10.25;8.00;;;;;27.05;29.46;101366.50;4958876;28;45261;-59
2022/08/11 10:19:44;;;;;;;;;8.00;6.75;;;;;27.05;29.56;101372.69;4959192;28;45333;-56
2022/08/11 10:27:43;;;;;;;;;8.25;8.25;;;;;27.06;29.71;101370.88;4959113;28;45691;-60
2022/08/11 10:35:42;;;;;;;;;6.25;6.25;;;;;27.08;29.22;101353.81;4958923;28;45419;-59
2022/08/11 10:38:09;;;;;;;;;10.75;9.00;;;;;27.09;29.08;101350.19;4958548;28;45781;-57
2022/08/11 10:40:36;;;;;;;;;8.00;8.00;;;;;27.11;29.25;101345.63;4958142;28;45366;-58
2022/08/11 10:43:06;;;;;;;;;8.75;8.75;;;;;27.13;29.46;101340.16;4959058;28;45364;-54
2022/08/11 10:48:24;;;;;;;;;8.25;8.00;;;;;27.14;29.51;101339.22;4958421;28;45250;-57
2022/08/11 10:59:13;;;;;;;;;8.25;8.25;;;;;27.17;28.95;101331.84;4958630;28;45238;-54
2022/08/11 11:01:42;;;;;;;;;10.75;8.50;;;;;27.17;29.00;101315.88;4958769;28;45379;-53
2022/08/11 11:04:32;;;;;;;;;9.00;8.00;;;;;27.20;28.61;101322.78;4958379;28;45388;-57
2022/08/11 11:07:03;;;;;;;;;10.75;8.75;;;;;27.17;28.83;101331.84;4958148;28;45400;-60
2022/08/11 11:09:39;;;;;;;;;8.25;8.25;;;;;27.19;29.02;101325.56;4958421;28;45427;-59
2022/08/11 11:18:08;;;;;;;;;9.00;9.00;;;;;27.23;28.97;101301.25;4958145;28;45703;-59
2022/08/11 11:20:58;;;;;;;;;11.75;9.00;;;;;27.23;28.89;101298.59;4958486;28;45845;-57
2022/08/11 11:23:47;;;;;;;;;7.50;7.50;;;;;27.24;28.63;101296.78;4958373;28;45182;-52
2022/08/11 11:26:34;;;;;;;;;10.00;10.00;;;;;27.24;29.12;101302.09;4958303;28;45395;-59
2022/08/11 11:29:24;;;;;;;;;10.50;10.50;;;;;27.25;29.01;101295.81;4957726;28;45400;-49
2022/08/11 11:32:11;;;;;;;;;12.00;9.00;;;;;27.25;29.00;101293.16;4958066;28;45292;-59
2022/08/11 11:34:39;;;;;;;;;10.00;9.00;;;;;27.25;29.11;101299.31;4958257;28;45416;-54
2022/08/11 11:37:05;;;;;;;;;10.50;9.75;;;;;27.26;29.10;101289.53;4958309;28;45393;-59
2022/08/11 11:39:32;;;;;;;;;11.25;9.75;;;;;27.26;28.74;101295.69;4957910;28;46035;-59
2022/08/11 11:42:05;;;;;;;;;8.00;8.00;;;;;27.26;28.69;101293.03;4956785;28;45412;-58
2022/08/11 11:44:31;;;;;;;;;10.00;9.00;;;;;27.26;28.86;101289.53;4956736;28;45329;-57
2022/08/11 11:46:59;;;;;;;;;11.25;11.25;;;;;27.28;28.99;101290.28;4957862;28;45443;-56
2022/08/11 11:49:28;;;;;;;;;12.50;9.75;;;;;27.27;28.35;101285.91;4957854;28;45660;-47
2022/08/11 11:51:55;;;;;;;;;11.00;10.25;;;;;27.28;28.91;101284.94;4957723;28;45473;-50
2022/08/11 11:54:25;;;;;;;;;10.75;9.75;;;;;27.28;28.44;101284.94;4957890;28;45246;-56
2022/08/11 11:56:52;;;;;;;;;12.00;10.25;;;;;27.29;28.58;101281.28;4957796;28;45346;-54
2022/08/11 12:02:06;;;;;;;;;11.00;10.50;;;;;27.29;28.79;101281.28;4957529;28;45880;-54
2022/08/11 12:04:35;;;;;;;;;12.50;11.25;;;;;27.29;28.59;101281.28;4958061;28;45329;-51
2022/08/11 12:09:46;;;;;;;;;10.25;9.75;;;;;27.30;28.52;101275.00;4957485;28;45428;-50
2022/08/11 12:14:56;;;;;;;;;12.25;11.25;;;;;27.30;28.34;101269.69;4957385;28;45379;-46
2022/08/11 12:17:23;;;;;;;;;13.00;10.75;;;;;27.30;28.27;101267.88;4957816;28;45486;-48
2022/08/11 12:19:49;;;;;;;;;10.50;9.00;;;;;27.30;28.39;101264.38;4957316;28;45989;-57
2022/08/11 12:27:46;;;;;;;;;7.50;7.50;;;;;27.30;28.12;101269.69;4957639;28;45321;-48
2022/08/11 12:30:12;;;;;;;;;8.75;8.75;;;;;27.30;28.09;101265.22;4956589;28;45430;-57
2022/08/11 12:32:42;;;;;;;;;7.50;7.00;;;;;27.32;28.51;101257.13;4955591;28;45347;-46
2022/08/11 12:35:08;;;;;;;;;11.50;8.50;;;;;27.34;28.37;101244.53;4956899;28;45458;-49
2022/08/11 12:37:37;;;;;;;;;10.75;10.00;;;;;27.36;28.38;101236.41;4957574;28;45604;-46
2022/08/11 12:45:42;;;;;;;;;13.25;10.00;;;;;27.41;27.87;101231.59;4956772;28;45353;-45
2022/08/11 12:53:58;;;;;;;;;10.75;10.50;;;;;27.44;28.50;101229.56;4956558;28;45880;-53
2022/08/11 13:04:57;;;;;;;;;11.00;10.00;;;;;27.45;28.23;101235.75;4956603;28;45321;-60
2022/08/11 13:07:25;;;;;;;;;10.75;10.00;;;;;27.45;28.09;101231.25;4956806;28;45258;-57
2022/08/11 13:09:52;;;;;;;;;9.25;9.25;;;;;27.46;28.16;101226.78;4957003;28;45403;-50
2022/08/11 13:15:04;;;;;;;;;20.00;13.00;;;;;27.43;28.00;101211.88;4955903;28;45313;-53
2022/08/11 13:17:29;;;;;;;;;17.25;10.75;;;;;27.44;28.20;101218.91;4956498;28;45285;-53
2022/08/11 13:19:59;;;;;;;;;11.75;9.75;;;;;27.47;28.28;101223.16;4956691;28;45325;-45
2022/08/11 13:22:26;;;;;;;;;11.75;10.00;;;;;27.52;28.44;101218.31;4956389;28;45956;-59
2022/08/11 13:24:54;;;;;;;;;7.75;7.75;;;;;27.55;28.08;101218.09;4956341;28;45296;-52
2022/08/11 13:27:20;;;;;;;;;10.50;10.00;;;;;27.59;27.91;101218.69;4956303;28;45348;-51
2022/08/11 13:29:47;;;;;;;;;9.25;8.00;;;;;27.62;27.99;101213.09;4956714;28;45576;-45
2022/08/11 13:32:15;;;;;;;;;22.00;12.25;;;;;27.65;28.22;101204.84;4956154;28;46059;-49
2022/08/11 13:34:41;;;;;;;;;24.25;15.00;;;;;27.66;28.19;101209.22;4956417;28;45352;-45
2022/08/11 13:37:10;;;;;;;;;14.50;11.50;;;;;27.68;28.10;101211.75;4956692;28;45357;-54
2022/08/11 13:39:36;;;;;;;;;14.75;11.00;;;;;27.69;28.20;101208.13;4956211;28;45233;-58
2022/08/11 13:42:03;;;;;;;;;11.75;10.75;;;;;27.69;28.34;101193.00;4956089;28;45390;-51
2022/08/11 13:44:33;;;;;;;;;16.25;12.00;;;;;27.71;28.26;101198.19;4956360;28;45388;-55
2022/08/11 13:47:02;;;;;;;;;13.50;13.50;;;;;27.71;28.33;101195.53;4956360;28;45269;-49
2022/08/11 13:49:30;;;;;;;;;18.00;12.50;;;;;27.71;28.31;101188.41;4956430;28;45579;-49
2022/08/11 13:51:57;;;;;;;;;16.00;12.25;;;;;27.71;28.41;101199.06;4955692;28;46066;-48
2022/08/11 13:54:28;;;;;;;;;13.25;11.25;;;;;27.72;28.39;101195.44;4956047;28;45353;-49
2022/08/11 13:56:59;;;;;;;;;13.75;12.50;;;;;27.73;28.35;101197.09;4956005;28;45704;-54
2022/08/11 13:59:25;;;;;;;;;15.75;11.75;;;;;27.75;28.17;101199.66;4956504;28;45325;-46
2022/08/11 14:02:14;;;;;;;;;11.50;11.00;;;;;27.74;27.84;101193.47;4955978;28;46074;-46
2022/08/11 14:04:47;;;;;;;;;14.75;11.25;;;;;27.75;28.24;101200.47;4955974;28;45700;-47
2022/08/11 14:07:19;;;;;;;;;12.00;11.00;;;;;27.74;28.22;101198.78;4959085;28;45296;-47
2022/08/11 14:09:45;;;;;;;;;11.00;11.00;;;;;27.74;28.04;101203.28;4959610;28;45445;-48
2022/08/11 14:15:18;;;;;;;;;11.00;10.00;;;;;27.72;27.70;101190.09;4959188;28;45183;-48
2022/08/11 14:17:50;;;;;;;;;12.25;10.75;;;;;27.72;27.70;101192.75;4959247;28;45179;-47
2022/08/11 14:20:19;;;;;;;;;9.75;9.75;;;;;27.73;27.72;101182.94;4959243;28;45353;-45
2022/08/11 14:22:45;;;;;;;;;13.00;11.25;;;;;27.72;27.92;101174.13;4958572;28;45391;-47
2022/08/11 14:25:15;;;;;;;;;11.50;9.50;;;;;27.72;27.92;101179.44;4961873;28;45941;-47
2022/08/11 14:27:42;;;;;;;;;12.25;11.00;;;;;27.73;28.05;101173.13;4976207;28;45307;-49
2022/08/11 14:30:53;;;;;;;;;12.50;12.00;;;;;27.76;27.93;101170.22;4959106;28;45501;-48
2022/08/11 14:32:56;;;;;;;;;14.25;12.00;;;;;27.75;28.00;101152.53;4958518;28;46443;-51
2022/08/11 14:35:21;;;;;;;;;11.00;10.75;;;;;27.76;27.90;101169.38;4958469;28;45857;-52
2022/08/11 14:37:47;;;;;;;;;12.00;9.50;;;;;27.74;27.81;101166.00;4958650;28;45325;-50
2022/08/11 14:47:03;;;;;;;;;12.25;11.25;;;;;27.73;28.08;101162.47;4958644;28;45622;-48
2022/08/11 14:48:28;;;;;;;;;13.00;11.00;;;;;27.71;28.13;101148.47;4958845;28;45445;-51
2022/08/11 14:50:55;;;;;;;;;12.00;11.00;;;;;27.72;28.07;101147.50;4957517;28;45602;-51
2022/08/11 14:53:22;;;;;;;;;12.50;9.75;;;;;27.71;28.39;101140.47;4958365;28;46172;-49
2022/08/11 14:58:32;;;;;;;;;10.00;10.00;;;;;27.72;28.35;101130.66;4958483;28;45326;-45
2022/08/11 15:01:01;;;;;;;;;9.50;9.50;;;;;27.73;28.07;101151.81;4958489;28;45582;-46
2022/08/11 15:03:30;;;;;;;;;10.25;9.25;;;;;27.73;28.18;101127.03;4956840;28;46590;-46
2022/08/11 15:06:01;;;;;;;;;11.00;9.75;;;;;27.74;27.99;101123.38;4958041;28;45860;-48
2022/08/11 15:14:07;;;;;;;;;12.00;10.25;;;;;27.75;27.79;101123.25;4958156;28;45397;-45
2022/08/11 15:19:19;;;;;;;;;11.00;11.00;;;;;27.78;28.06;101123.00;4958050;28;45471;-45
2022/08/11 15:24:32;;;;;;;;;12.50;11.25;;;;;27.80;27.91;101116.72;4957909;28;45396;-46
2022/08/11 15:38:03;;;;;;;;;16.00;11.75;;;;;27.84;28.07;101108.34;4959708;28;45800;-45
2022/08/11 15:46:13;;;;;;;;;13.00;11.00;;;;;27.88;27.74;101114.25;4976828;28;45461;-45
2022/08/11 15:48:47;;;;;;;;;12.25;12.00;;;;;27.89;27.52;101107.97;4976973;28;45695;-45
2022/08/11 15:51:22;;;;;;;;;13.75;10.75;;;;;27.89;27.55;101107.97;4976799;28;45385;-46
2022/08/11 15:53:53;;;;;;;;;11.25;11.25;;;;;27.89;27.36;101102.63;4963535;28;45312;-54
2022/08/11 15:56:21;;;;;;;;;13.00;11.00;;;;;27.90;27.54;101099.00;4954700;28;46192;-47
2022/08/11 16:04:26;;;;;;;;;14.00;11.50;;;;;27.91;27.28;101092.69;4957447;28;45391;-48
2022/08/11 16:07:04;;;;;;;;;11.25;10.00;;;;;27.90;27.35;101094.50;4957088;28;46460;-45
2022/08/11 16:09:50;;;;;;;;;12.00;12.00;;;;;27.90;27.03;101091.84;4956930;28;45338;-45
2022/08/11 16:12:20;;;;;;;;;13.00;13.00;;;;;27.90;27.28;101085.69;4957037;28;45321;-47
2022/08/11 16:17:44;;;;;;;;;10.25;10.00;;;;;27.90;27.21;101091.00;4956756;28;45734;-45
2022/08/11 16:20:16;;;;;;;;;13.50;13.00;;;;;27.88;27.13;101087.63;4957058;28;45255;-46
2022/08/11 16:22:46;;;;;;;;;10.00;10.00;;;;;27.88;27.10;101083.16;4957385;28;45375;-45
2022/08/11 16:25:14;;;;;;;;;10.50;10.50;;;;;27.88;27.42;101088.47;4957184;28;45559;-44
2022/08/11 16:27:46;;;;;;;;;10.50;10.50;;;;;27.88;27.11;101087.63;4956450;28;46175;-45
2022/08/11 16:30:13;;;;;;;;;14.00;11.75;;;;;27.87;27.06;101089.44;4956930;28;45327;-46
2022/08/11 16:32:42;;;;;;;;;11.00;11.00;;;;;27.87;26.87;101085.91;4956000;28;45330;-45
2022/08/11 16:40:49;;;;;;;;;10.25;9.75;;;;;27.87;27.10;101077.94;4956973;28;45845;-46
2022/08/11 16:48:52;;;;;;;;;10.00;9.50;;;;;27.86;27.46;101071.78;4955483;28;45439;-45
2022/08/11 16:51:19;;;;;;;;;10.00;10.00;;;;;27.86;27.05;101071.78;4956400;28;45246;-45
2022/08/11 16:53:47;;;;;;;;;11.50;10.25;;;;;27.86;26.86;101063.78;4956499;28;45300;-44
2022/08/11 16:56:17;;;;;;;;;11.50;9.75;;;;;27.86;27.16;101063.78;4956766;28;45348;-46
2022/08/11 17:01:32;;;;;;;;;13.25;12.50;;;;;27.84;26.61;101048.88;4956587;28;45322;-45
2022/08/11 17:18:44;;;;;;;;;13.00;11.25;;;;;27.85;26.95;101061.22;4956540;28;45456;-45
2022/08/11 17:21:14;;;;;;;;;12.00;12.00;;;;;27.86;26.76;101068.25;4956109;28;46261;-50
2022/08/11 17:23:45;;;;;;;;;12.50;12.25;;;;;27.85;26.96;101063.91;4956662;28;45661;-49
2022/08/11 17:26:16;;;;;;;;;11.00;11.00;;;;;27.86;27.16;101068.25;4956231;28;45417;-46
2022/08/11 17:28:43;;;;;;;;;10.50;10.50;;;;;27.85;27.08;101059.44;4956377;28;45421;-46
2022/08/11 17:36:43;;;;;;;;;11.50;11.50;;;;;27.86;27.00;101063.78;4956723;28;45314;-46
2022/08/11 17:39:11;;;;;;;;;10.00;10.00;;;;;27.86;26.93;101066.44;4955993;28;45214;-45
2022/08/11 17:49:53;;;;;;;;;10.50;10.50;;;;;27.86;27.18;101066.44;4959531;28;45310;-45
2022/08/11 18:00:34;;;;;;;;;13.50;12.00;;;;;27.86;27.08;101068.25;4959503;28;45282;-46
2022/08/11 18:05:47;;;;;;;;;11.50;11.50;;;;;27.86;26.90;101078.91;4959750;28;45772;-45
